Time;durP1;ratioP1;P1;durP2;ratioP2;P2;SDS_P1;SDS_P2;PMS_P1;PMS_P2;Temp;Humidity;BMP_temperature;BMP_pressure;BME280_temperature;BME280_humidity;BME280_pressure;Samples;Min_cycle;Max_cycle;Signal;HPM_P1;HPM_P2
2021/08/01 00:00:20;;;;;;;11.53;10.50;;;;;;;;;;4971732;28;20483;-47
2021/08/01 00:02:47;;;;;;;12.67;11.47;;;;;;;;;;4972287;28;20409;-47
2021/08/01 00:05:13;;;;;;;14.30;12.77;;;;;;;;;;4972060;28;20742;-46
2021/08/01 00:07:39;;;;;;;15.03;12.80;;;;;;;;;;4972174;28;20475;-47
2021/08/01 00:10:06;;;;;;;14.10;12.70;;;;;;;;;;4971701;28;20417;-47
2021/08/01 00:12:33;;;;;;;12.90;11.60;;;;;;;;;;4971920;28;20429;-47
2021/08/01 00:14:59;;;;;;;15.03;12.60;;;;;;;;;;4972309;28;20380;-47
2021/08/01 00:17:25;;;;;;;16.10;14.20;;;;;;;;;;4971959;28;20401;-46
2021/08/01 00:19:51;;;;;;;14.60;13.20;;;;;;;;;;4971776;28;20477;-47
2021/08/01 00:22:17;;;;;;;14.53;12.70;;;;;;;;;;4971914;28;20467;-47
2021/08/01 00:24:43;;;;;;;19.63;13.93;;;;;;;;;;4972028;28;20382;-47
2021/08/01 00:27:09;;;;;;;14.10;12.87;;;;;;;;;;4971807;28;20453;-47
2021/08/01 00:29:35;;;;;;;14.37;12.87;;;;;;;;;;4972087;28;20483;-47
2021/08/01 00:32:02;;;;;;;17.17;14.20;;;;;;;;;;4971613;28;20920;-47
2021/08/01 00:34:28;;;;;;;16.47;13.93;;;;;;;;;;4971705;28;20410;-47
2021/08/01 00:36:54;;;;;;;18.53;13.50;;;;;;;;;;4971883;28;20487;-47
2021/08/01 00:39:20;;;;;;;14.10;12.70;;;;;;;;;;4972014;28;20766;-47
2021/08/01 00:41:46;;;;;;;14.10;12.23;;;;;;;;;;4975647;28;20383;-47
2021/08/01 00:44:12;;;;;;;15.30;13.70;;;;;;;;;;4975962;28;20463;-47
2021/08/01 00:46:41;;;;;;;19.33;14.40;;;;;;;;;;4976128;28;20787;-47
2021/08/01 00:49:07;;;;;;;16.47;14.73;;;;;;;;;;4975946;28;20794;-47
2021/08/01 00:51:33;;;;;;;14.40;13.00;;;;;;;;;;4975537;28;20420;-47
2021/08/01 00:54:00;;;;;;;16.50;14.43;;;;;;;;;;4975559;28;20379;-47
2021/08/01 00:56:26;;;;;;;15.93;14.30;;;;;;;;;;4975402;28;20386;-47
2021/08/01 00:58:52;;;;;;;15.27;13.67;;;;;;;;;;4975367;28;20400;-47
2021/08/01 01:01:22;;;;;;;18.10;12.80;;;;;;;;;;4974814;28;20400;-47
2021/08/01 01:03:53;;;;;;;18.63;15.43;;;;;;;;;;4974802;28;20383;-48
2021/08/01 01:06:22;;;;;;;19.40;15.20;;;;;;;;;;4974784;28;20380;-47
2021/08/01 01:08:55;;;;;;;16.77;13.37;;;;;;;;;;4975015;28;20867;-47
2021/08/01 01:11:22;;;;;;;19.23;14.03;;;;;;;;;;4974826;28;20534;-47
2021/08/01 01:13:49;;;;;;;17.33;14.00;;;;;;;;;;4975084;28;20383;-47
2021/08/01 01:16:16;;;;;;;16.77;14.20;;;;;;;;;;4974948;28;20950;-47
2021/08/01 01:18:46;;;;;;;21.90;13.83;;;;;;;;;;4974929;28;20537;-46
2021/08/01 01:21:14;;;;;;;17.93;14.23;;;;;;;;;;4974813;28;20425;-47
2021/08/01 01:23:50;;;;;;;19.07;15.00;;;;;;;;;;4974769;28;20404;-47
2021/08/01 01:26:36;;;;;;;19.80;15.30;;;;;;;;;;4974802;28;20387;-46
2021/08/01 01:29:05;;;;;;;20.73;14.57;;;;;;;;;;4974614;28;20539;-47
2021/08/01 01:31:49;;;;;;;16.70;14.07;;;;;;;;;;4974534;28;20376;-47
2021/08/01 01:34:23;;;;;;;16.83;14.60;;;;;;;;;;4975173;28;20414;-47
2021/08/01 01:36:50;;;;;;;18.77;15.43;;;;;;;;;;4974697;28;20382;-47
2021/08/01 01:39:16;;;;;;;18.70;15.40;;;;;;;;;;4974500;28;20936;-47
2021/08/01 01:41:44;;;;;;;17.50;14.33;;;;;;;;;;4974642;28;20379;-47
2021/08/01 01:44:11;;;;;;;19.10;16.30;;;;;;;;;;4974545;28;20398;-47
2021/08/01 01:46:37;;;;;;;20.57;15.50;;;;;;;;;;4974265;28;20384;-47
2021/08/01 01:49:08;;;;;;;15.83;14.23;;;;;;;;;;4974424;28;20432;-47
2021/08/01 01:51:35;;;;;;;18.53;15.63;;;;;;;;;;4973606;28;20933;-47
2021/08/01 01:54:01;;;;;;;19.23;14.90;;;;;;;;;;4974360;28;20405;-47
2021/08/01 01:56:29;;;;;;;20.43;16.00;;;;;;;;;;4974282;28;20460;-47
2021/08/01 01:58:55;;;;;;;18.70;15.87;;;;;;;;;;4974258;28;20948;-47
2021/08/01 02:01:21;;;;;;;23.90;15.30;;;;;;;;;;4973843;28;20500;-47
2021/08/01 02:03:47;;;;;;;17.77;15.17;;;;;;;;;;4974230;28;20444;-47
2021/08/01 02:06:14;;;;;;;19.90;16.00;;;;;;;;;;4974255;28;20408;-47
2021/08/01 02:08:49;;;;;;;23.40;15.93;;;;;;;;;;4974095;28;20439;-47
2021/08/01 02:11:17;;;;;;;21.67;15.97;;;;;;;;;;4973899;28;20919;-47
2021/08/01 02:13:49;;;;;;;19.93;15.07;;;;;;;;;;4973877;28;20808;-47
2021/08/01 02:16:15;;;;;;;18.33;15.03;;;;;;;;;;4973901;28;20931;-47
2021/08/01 02:18:52;;;;;;;22.03;15.60;;;;;;;;;;4973884;28;20474;-47
2021/08/01 02:21:19;;;;;;;18.37;15.07;;;;;;;;;;4973637;28;20383;-47
2021/08/01 02:23:46;;;;;;;21.17;16.57;;;;;;;;;;4973759;28;20453;-47
2021/08/01 02:26:14;;;;;;;17.60;14.90;;;;;;;;;;4973752;28;20409;-47
2021/08/01 02:28:41;;;;;;;19.17;16.10;;;;;;;;;;4973570;28;20423;-48
2021/08/01 02:31:08;;;;;;;21.30;16.50;;;;;;;;;;4973601;28;20629;-47
2021/08/01 02:33:34;;;;;;;18.73;15.63;;;;;;;;;;4973576;28;20740;-47
2021/08/01 02:36:01;;;;;;;18.90;14.80;;;;;;;;;;4973678;28;20409;-47
2021/08/01 02:38:28;;;;;;;21.50;14.63;;;;;;;;;;4973557;28;20372;-47
2021/08/01 02:40:56;;;;;;;21.53;14.33;;;;;;;;;;4973257;28;20379;-47
2021/08/01 02:43:23;;;;;;;20.07;15.63;;;;;;;;;;4973591;28;20384;-47
2021/08/01 02:45:49;;;;;;;19.87;15.73;;;;;;;;;;4973388;28;20401;-47
2021/08/01 02:48:16;;;;;;;21.30;14.90;;;;;;;;;;4973277;28;20485;-47
2021/08/01 02:50:45;;;;;;;22.20;15.70;;;;;;;;;;4973127;28;20409;-47
2021/08/01 02:53:12;;;;;;;19.67;15.77;;;;;;;;;;4973110;28;20375;-46
2021/08/01 02:55:38;;;;;;;19.13;14.97;;;;;;;;;;4973443;28;20500;-47
2021/08/01 02:58:06;;;;;;;17.80;14.93;;;;;;;;;;4973313;28;20785;-47
2021/08/01 03:00:33;;;;;;;21.97;15.13;;;;;;;;;;4973010;28;20433;-47
2021/08/01 03:02:59;;;;;;;20.53;14.50;;;;;;;;;;4972433;28;20761;-47
2021/08/01 03:05:26;;;;;;;19.50;14.83;;;;;;;;;;4972886;28;20397;-47
2021/08/01 03:07:52;;;;;;;19.40;14.50;;;;;;;;;;4972881;28;20428;-47
2021/08/01 03:10:19;;;;;;;17.83;15.13;;;;;;;;;;4972868;28;20486;-48
2021/08/01 03:12:46;;;;;;;18.47;13.93;;;;;;;;;;4973045;28;20436;-47
2021/08/01 03:15:12;;;;;;;17.73;14.67;;;;;;;;;;4973076;28;20384;-47
2021/08/01 03:17:38;;;;;;;17.37;14.23;;;;;;;;;;4972870;28;20379;-47
2021/08/01 03:20:05;;;;;;;19.60;14.20;;;;;;;;;;4972577;28;20903;-47
2021/08/01 03:22:31;;;;;;;18.73;14.30;;;;;;;;;;4972663;28;20380;-46
2021/08/01 03:24:58;;;;;;;19.87;15.00;;;;;;;;;;4972836;28;20399;-47
2021/08/01 03:27:24;;;;;;;21.70;16.27;;;;;;;;;;4972674;28;20781;-47
2021/08/01 03:29:50;;;;;;;21.40;15.53;;;;;;;;;;4972342;28;20422;-47
2021/08/01 03:32:16;;;;;;;18.87;15.40;;;;;;;;;;4972530;28;20385;-47
2021/08/01 03:34:42;;;;;;;21.77;15.90;;;;;;;;;;4972609;28;20437;-47
2021/08/01 03:37:08;;;;;;;21.77;14.40;;;;;;;;;;4972474;28;20490;-47
2021/08/01 03:39:35;;;;;;;18.10;14.47;;;;;;;;;;4972526;28;20407;-47
2021/08/01 03:42:02;;;;;;;21.60;14.60;;;;;;;;;;4972667;28;20379;-47
2021/08/01 03:44:27;;;;;;;19.43;15.27;;;;;;;;;;4972319;28;20380;-47
2021/08/01 03:46:53;;;;;;;25.50;17.50;;;;;;;;;;4972306;28;20962;-47
2021/08/01 03:49:19;;;;;;;20.00;15.50;;;;;;;;;;4972137;28;20888;-47
2021/08/01 03:51:45;;;;;;;24.07;15.30;;;;;;;;;;4972023;28;20643;-47
2021/08/01 03:54:11;;;;;;;23.37;15.20;;;;;;;;;;4972183;28;20388;-47
2021/08/01 03:56:43;;;;;;;25.30;16.27;;;;;;;;;;4972229;28;20383;-46
2021/08/01 03:59:09;;;;;;;21.93;16.10;;;;;;;;;;4972125;28;20500;-47
2021/08/01 04:01:35;;;;;;;25.17;15.63;;;;;;;;;;4972048;28;20948;-47
2021/08/01 04:04:01;;;;;;;19.50;16.77;;;;;;;;;;4971913;28;20423;-47
2021/08/01 04:06:26;;;;;;;20.90;17.00;;;;;;;;;;4972298;28;20417;-47
2021/08/01 04:08:52;;;;;;;20.53;15.60;;;;;;;;;;4972005;28;20818;-46
2021/08/01 04:11:18;;;;;;;19.73;15.23;;;;;;;;;;4971875;28;20828;-47
2021/08/01 04:13:44;;;;;;;19.17;15.60;;;;;;;;;;4971784;28;20833;-48
2021/08/01 04:16:10;;;;;;;25.60;17.50;;;;;;;;;;4971689;28;20397;-47
2021/08/01 04:18:36;;;;;;;21.50;16.20;;;;;;;;;;4971739;28;20382;-47
2021/08/01 04:21:07;;;;;;;20.57;16.17;;;;;;;;;;4971780;28;20381;-47
2021/08/01 04:23:34;;;;;;;21.97;15.73;;;;;;;;;;4972015;28;20423;-47
2021/08/01 04:26:00;;;;;;;19.37;16.17;;;;;;;;;;4971923;28;20405;-47
2021/08/01 04:28:26;;;;;;;21.90;16.80;;;;;;;;;;4971609;28;20967;-46
2021/08/01 04:30:52;;;;;;;22.93;16.60;;;;;;;;;;4971498;28;20499;-47
2021/08/01 04:33:18;;;;;;;22.60;15.73;;;;;;;;;;4971564;28;20379;-47
2021/08/01 04:35:44;;;;;;;21.20;17.43;;;;;;;;;;4971850;28;20409;-47
2021/08/01 04:38:10;;;;;;;20.70;17.13;;;;;;;;;;4971739;28;20419;-47
2021/08/01 04:40:36;;;;;;;24.83;16.13;;;;;;;;;;4971568;28;20498;-47
2021/08/01 04:43:02;;;;;;;20.87;15.83;;;;;;;;;;4971602;28;20896;-47
2021/08/01 04:45:28;;;;;;;24.70;16.60;;;;;;;;;;4971651;28;20388;-47
2021/08/01 04:47:54;;;;;;;19.23;16.20;;;;;;;;;;4971479;28;20506;-47
2021/08/01 04:50:20;;;;;;;23.47;16.10;;;;;;;;;;4971440;28;20421;-46
2021/08/01 04:52:46;;;;;;;22.33;17.30;;;;;;;;;;4971531;28;20379;-47
2021/08/01 04:55:12;;;;;;;25.50;16.57;;;;;;;;;;4971737;28;20489;-47
2021/08/01 04:57:38;;;;;;;19.30;15.80;;;;;;;;;;4971610;28;20376;-47
2021/08/01 05:00:07;;;;;;;18.77;16.20;;;;;;;;;;4971300;28;20396;-47
2021/08/01 05:02:33;;;;;;;25.37;18.37;;;;;;;;;;4971383;28;20405;-47
2021/08/01 05:05:03;;;;;;;24.60;18.70;;;;;;;;;;4971545;28;20401;-47
2021/08/01 05:07:29;;;;;;;20.20;17.13;;;;;;;;;;4971445;28;20956;-46
2021/08/01 05:09:55;;;;;;;20.83;17.03;;;;;;;;;;4971169;28;21087;-46
2021/08/01 05:12:21;;;;;;;23.10;17.60;;;;;;;;;;4971420;28;20472;-47
2021/08/01 05:14:47;;;;;;;23.10;16.40;;;;;;;;;;4971343;28;20860;-46
2021/08/01 05:17:13;;;;;;;20.77;15.97;;;;;;;;;;4971707;28;20384;-47
2021/08/01 05:19:40;;;;;;;23.87;18.20;;;;;;;;;;4971197;28;20404;-46
2021/08/01 05:22:06;;;;;;;22.83;16.67;;;;;;;;;;4971327;28;20500;-46
2021/08/01 05:24:32;;;;;;;23.23;17.93;;;;;;;;;;4971432;28;20889;-47
2021/08/01 05:26:58;;;;;;;29.77;19.03;;;;;;;;;;4972360;28;20916;-47
2021/08/01 05:29:24;;;;;;;23.33;18.97;;;;;;;;;;4974661;28;20484;-47
2021/08/01 05:31:51;;;;;;;22.50;17.90;;;;;;;;;;4974785;28;20383;-47
2021/08/01 05:34:17;;;;;;;24.03;18.63;;;;;;;;;;4974959;28;20401;-47
2021/08/01 05:36:43;;;;;;;25.47;19.37;;;;;;;;;;4975130;28;20402;-47
2021/08/01 05:39:09;;;;;;;21.47;17.37;;;;;;;;;;4974884;28;20901;-47
2021/08/01 05:41:35;;;;;;;26.90;18.77;;;;;;;;;;4974898;28;20416;-47
2021/08/01 05:44:01;;;;;;;24.43;18.57;;;;;;;;;;4974683;28;20391;-47
2021/08/01 05:46:27;;;;;;;20.97;18.67;;;;;;;;;;4974836;28;20385;-47
2021/08/01 05:48:53;;;;;;;19.40;16.53;;;;;;;;;;4974663;28;20467;-47
2021/08/01 05:51:20;;;;;;;30.90;18.43;;;;;;;;;;4974361;28;20462;-47
2021/08/01 05:53:46;;;;;;;22.97;17.17;;;;;;;;;;4974353;28;20404;-47
2021/08/01 05:56:12;;;;;;;24.80;18.77;;;;;;;;;;4974338;28;20376;-47
2021/08/01 05:58:39;;;;;;;22.17;17.43;;;;;;;;;;4974107;28;20458;-47
2021/08/01 06:01:06;;;;;;;20.57;18.00;;;;;;;;;;4974355;28;20375;-47
2021/08/01 06:03:32;;;;;;;22.30;17.23;;;;;;;;;;4974348;28;20402;-47
2021/08/01 06:06:06;;;;;;;24.83;16.17;;;;;;;;;;4974265;28;20400;-47
2021/08/01 06:08:32;;;;;;;20.50;15.27;;;;;;;;;;4974038;28;20572;-47
2021/08/01 06:10:58;;;;;;;21.13;16.70;;;;;;;;;;4973841;28;20472;-47
2021/08/01 06:13:24;;;;;;;19.90;15.20;;;;;;;;;;4974043;28;20397;-47
2021/08/01 06:15:50;;;;;;;22.07;14.80;;;;;;;;;;4973994;28;20406;-47
2021/08/01 06:18:16;;;;;;;18.53;15.47;;;;;;;;;;4974151;28;20376;-47
2021/08/01 06:20:42;;;;;;;17.37;14.80;;;;;;;;;;4973684;28;20396;-47
2021/08/01 06:23:08;;;;;;;17.20;13.40;;;;;;;;;;4973865;28;20435;-47
2021/08/01 06:25:38;;;;;;;18.87;15.20;;;;;;;;;;4973762;28;20380;-47
2021/08/01 06:28:04;;;;;;;15.43;13.37;;;;;;;;;;4973693;28;20855;-47
2021/08/01 06:30:30;;;;;;;19.07;14.20;;;;;;;;;;4974230;28;20427;-46
2021/08/01 06:32:56;;;;;;;16.90;14.40;;;;;;;;;;4973751;28;20470;-47
2021/08/01 06:35:22;;;;;;;16.80;14.70;;;;;;;;;;4973635;28;20459;-49
2021/08/01 06:37:48;;;;;;;19.07;15.73;;;;;;;;;;4973384;28;20419;-47
2021/08/01 06:40:16;;;;;;;20.00;15.47;;;;;;;;;;4973216;28;20431;-46
2021/08/01 06:42:42;;;;;;;16.20;13.27;;;;;;;;;;4973474;28;20381;-47
2021/08/01 06:45:08;;;;;;;17.53;13.93;;;;;;;;;;4973652;28;20406;-46
2021/08/01 06:47:34;;;;;;;20.50;14.77;;;;;;;;;;4973439;28;20426;-46
2021/08/01 06:50:00;;;;;;;18.37;14.50;;;;;;;;;;4973176;28;20430;-46
2021/08/01 06:52:26;;;;;;;14.20;12.70;;;;;;;;;;4973365;28;20905;-47
2021/08/01 06:54:52;;;;;;;16.60;13.87;;;;;;;;;;4973172;28;20410;-46
2021/08/01 06:57:18;;;;;;;16.77;14.00;;;;;;;;;;4973448;28;20409;-46
2021/08/01 06:59:44;;;;;;;15.60;14.00;;;;;;;;;;4972914;28;20427;-47
2021/08/01 07:02:10;;;;;;;22.70;14.90;;;;;;;;;;4973043;28;20416;-48
2021/08/01 07:04:36;;;;;;;17.43;13.90;;;;;;;;;;4973125;28;20419;-48
2021/08/01 07:07:02;;;;;;;13.50;11.70;;;;;;;;;;4973120;28;20383;-48
2021/08/01 07:09:28;;;;;;;15.80;12.80;;;;;;;;;;4973322;28;20424;-47
2021/08/01 07:11:54;;;;;;;13.57;12.17;;;;;;;;;;4972901;28;20596;-46
2021/08/01 07:14:20;;;;;;;12.77;11.33;;;;;;;;;;4972941;28;20416;-46
2021/08/01 07:16:46;;;;;;;17.33;11.60;;;;;;;;;;4972926;28;20405;-47
2021/08/01 07:19:12;;;;;;;14.47;11.43;;;;;;;;;;4972879;28;20975;-46
2021/08/01 07:21:38;;;;;;;14.33;12.40;;;;;;;;;;4972576;28;20444;-46
2021/08/01 07:24:04;;;;;;;14.40;12.07;;;;;;;;;;4972697;28;20410;-46
2021/08/01 07:26:30;;;;;;;13.10;11.53;;;;;;;;;;4972609;28;20440;-47
2021/08/01 07:28:56;;;;;;;19.53;14.40;;;;;;;;;;4972503;28;20442;-47
2021/08/01 07:31:22;;;;;;;13.33;12.00;;;;;;;;;;4972511;28;20400;-48
2021/08/01 07:33:48;;;;;;;14.60;11.57;;;;;;;;;;4972529;28;20459;-49
2021/08/01 07:36:14;;;;;;;12.33;10.67;;;;;;;;;;4972582;28;20409;-46
2021/08/01 07:38:40;;;;;;;19.17;12.40;;;;;;;;;;4972362;28;20415;-46
2021/08/01 07:41:06;;;;;;;16.17;12.27;;;;;;;;;;4972216;28;20401;-46
2021/08/01 07:43:32;;;;;;;15.10;12.20;;;;;;;;;;4972467;28;20487;-46
2021/08/01 07:45:58;;;;;;;13.70;11.40;;;;;;;;;;4972294;28;20400;-46
2021/08/01 07:48:24;;;;;;;15.43;11.90;;;;;;;;;;4972351;28;20467;-47
2021/08/01 07:50:50;;;;;;;12.80;10.10;;;;;;;;;;4971426;28;20460;-46
2021/08/01 07:53:15;;;;;;;14.43;10.40;;;;;;;;;;4972223;28;20407;-47
2021/08/01 07:55:43;;;;;;;14.70;10.17;;;;;;;;;;4972399;28;20416;-47
2021/08/01 07:58:09;;;;;;;10.33;9.33;;;;;;;;;;4972500;28;20409;-46
2021/08/01 08:00:35;;;;;;;11.50;8.80;;;;;;;;;;4972131;28;20963;-47
2021/08/01 08:03:01;;;;;;;18.00;7.93;;;;;;;;;;4972125;28;20405;-48
2021/08/01 08:05:27;;;;;;;9.37;7.37;;;;;;;;;;4972133;28;20405;-49
2021/08/01 08:07:54;;;;;;;8.53;6.00;;;;;;;;;;4972063;28;20551;-49
2021/08/01 08:10:20;;;;;;;7.53;5.40;;;;;;;;;;4972107;28;20463;-47
2021/08/01 08:12:46;;;;;;;5.67;5.17;;;;;;;;;;4972701;28;20405;-47
2021/08/01 08:15:12;;;;;;;7.83;5.70;;;;;;;;;;4972421;28;20408;-48
2021/08/01 08:17:39;;;;;;;8.00;4.40;;;;;;;;;;4972153;28;20972;-47
2021/08/01 08:20:06;;;;;;;4.83;4.20;;;;;;;;;;4972082;28;20425;-47
2021/08/01 08:22:33;;;;;;;5.30;3.70;;;;;;;;;;4971817;28;20989;-47
2021/08/01 08:24:59;;;;;;;5.83;5.13;;;;;;;;;;4972004;28;20495;-47
2021/08/01 08:27:25;;;;;;;5.00;3.63;;;;;;;;;;4972007;28;20539;-47
2021/08/01 08:29:51;;;;;;;3.50;3.20;;;;;;;;;;4971769;28;20855;-47
2021/08/01 08:32:17;;;;;;;4.73;3.47;;;;;;;;;;4971825;28;21000;-47
2021/08/01 08:34:43;;;;;;;4.13;3.00;;;;;;;;;;4971990;28;20408;-48
2021/08/01 08:37:09;;;;;;;3.00;2.70;;;;;;;;;;4971654;28;20397;-46
2021/08/01 08:39:35;;;;;;;6.43;2.90;;;;;;;;;;4972019;28;20417;-47
2021/08/01 08:42:02;;;;;;;5.60;3.20;;;;;;;;;;4971705;28;20401;-48
2021/08/01 08:44:28;;;;;;;3.93;3.17;;;;;;;;;;4971988;28;20404;-47
2021/08/01 08:46:55;;;;;;;4.23;2.73;;;;;;;;;;4971596;28;20500;-47
2021/08/01 08:49:21;;;;;;;4.03;3.10;;;;;;;;;;4971653;28;20460;-47
2021/08/01 08:51:48;;;;;;;3.67;2.80;;;;;;;;;;4971373;28;20921;-47
2021/08/01 08:54:15;;;;;;;4.03;2.60;;;;;;;;;;4971726;28;20403;-47
2021/08/01 08:56:41;;;;;;;4.40;2.30;;;;;;;;;;4971597;28;20433;-48
2021/08/01 08:59:10;;;;;;;4.30;2.60;;;;;;;;;;4971475;28;20429;-47
2021/08/01 09:01:37;;;;;;;5.43;2.33;;;;;;;;;;4972053;28;20496;-47
2021/08/01 09:04:03;;;;;;;2.73;2.40;;;;;;;;;;4975172;28;20405;-47
2021/08/01 09:06:30;;;;;;;7.10;3.50;;;;;;;;;;4975301;28;20885;-46
2021/08/01 09:08:56;;;;;;;3.53;2.77;;;;;;;;;;4974984;28;20515;-48
2021/08/01 09:11:22;;;;;;;3.30;3.00;;;;;;;;;;4975033;28;20401;-49
2021/08/01 09:13:49;;;;;;;6.60;2.80;;;;;;;;;;4975178;28;20407;-47
2021/08/01 09:16:15;;;;;;;4.77;3.00;;;;;;;;;;4975219;28;20432;-47
2021/08/01 09:18:42;;;;;;;5.80;3.07;;;;;;;;;;4974877;28;20440;-46
2021/08/01 09:21:08;;;;;;;3.00;2.70;;;;;;;;;;4974903;28;20405;-47
2021/08/01 09:23:37;;;;;;;6.03;2.67;;;;;;;;;;4975056;28;20567;-47
2021/08/01 09:26:06;;;;;;;5.40;2.60;;;;;;;;;;4974983;28;20432;-47
2021/08/01 09:28:32;;;;;;;4.13;2.57;;;;;;;;;;4974725;28;20463;-47
2021/08/01 09:31:05;;;;;;;2.70;2.20;;;;;;;;;;4974661;28;20425;-47
2021/08/01 09:33:37;;;;;;;5.77;2.80;;;;;;;;;;4974717;28;20412;-47
2021/08/01 09:36:16;;;;;;;3.63;2.03;;;;;;;;;;4974783;28;20771;-47
2021/08/01 09:38:46;;;;;;;4.73;2.47;;;;;;;;;;4974716;28;20443;-47
2021/08/01 09:41:12;;;;;;;4.13;2.73;;;;;;;;;;4974627;28;20397;-47
2021/08/01 09:43:45;;;;;;;3.27;2.60;;;;;;;;;;4974495;28;20397;-47
2021/08/01 09:46:11;;;;;;;2.47;2.23;;;;;;;;;;4974731;28;20416;-48
2021/08/01 09:48:37;;;;;;;5.40;2.70;;;;;;;;;;4974281;28;20461;-47
2021/08/01 09:51:07;;;;;;;4.07;2.27;;;;;;;;;;4974412;28;20784;-46
2021/08/01 09:53:34;;;;;;;3.77;2.60;;;;;;;;;;4974485;28;20539;-47
2021/08/01 09:56:10;;;;;;;7.33;3.30;;;;;;;;;;4974431;28;20412;-47
2021/08/01 09:58:37;;;;;;;4.93;2.50;;;;;;;;;;4974587;28;20417;-48
2021/08/01 10:01:03;;;;;;;4.87;2.70;;;;;;;;;;4974328;28;20424;-47
2021/08/01 10:03:35;;;;;;;3.07;2.73;;;;;;;;;;4974255;28;20405;-47
2021/08/01 10:06:07;;;;;;;8.80;3.43;;;;;;;;;;4974255;28;20409;-47
2021/08/01 10:08:44;;;;;;;4.37;3.10;;;;;;;;;;4974071;28;20487;-47
2021/08/01 10:11:14;;;;;;;2.93;2.70;;;;;;;;;;4974290;28;20401;-47
2021/08/01 10:13:41;;;;;;;4.30;2.60;;;;;;;;;;4973830;28;20952;-47
2021/08/01 10:16:08;;;;;;;3.90;3.10;;;;;;;;;;4974152;28;20438;-51
2021/08/01 10:18:34;;;;;;;5.23;3.23;;;;;;;;;;4974490;28;20500;-47
2021/08/01 10:21:01;;;;;;;5.40;3.17;;;;;;;;;;4973854;28;20405;-47
2021/08/01 10:23:27;;;;;;;6.60;3.30;;;;;;;;;;4973955;28;20439;-50
2021/08/01 10:25:54;;;;;;;2.70;2.50;;;;;;;;;;4973862;28;20415;-48
2021/08/01 10:28:23;;;;;;;4.60;3.10;;;;;;;;;;4973788;28;20492;-47
2021/08/01 10:30:49;;;;;;;3.50;2.93;;;;;;;;;;4973553;28;20444;-47
2021/08/01 10:33:19;;;;;;;5.50;3.17;;;;;;;;;;4973769;28;20931;-48
2021/08/01 10:35:49;;;;;;;4.50;3.10;;;;;;;;;;4973476;28;20401;-48
2021/08/01 10:38:16;;;;;;;4.57;3.00;;;;;;;;;;4973713;28;20404;-48
2021/08/01 10:40:43;;;;;;;3.60;2.70;;;;;;;;;;4973410;28;20432;-48
2021/08/01 10:43:12;;;;;;;2.93;2.40;;;;;;;;;;4973558;28;20405;-48
2021/08/01 10:45:39;;;;;;;2.83;2.63;;;;;;;;;;4973400;28;20920;-47
2021/08/01 10:48:07;;;;;;;2.93;2.63;;;;;;;;;;4973424;28;20963;-47
2021/08/01 10:50:36;;;;;;;3.03;2.80;;;;;;;;;;4973477;28;20428;-47
2021/08/01 10:53:20;;;;;;;5.10;2.60;;;;;;;;;;4965862;28;20945;-50
2021/08/01 10:55:47;;;;;;;5.20;3.07;;;;;;;;;;4953996;29;20417;-49
2021/08/01 10:58:13;;;;;;;5.70;2.80;;;;;;;;;;4954226;29;20437;-47
2021/08/01 11:00:59;;;;;;;4.20;2.90;;;;;;;;;;4953904;28;20512;-48
2021/08/01 11:03:25;;;;;;;3.40;2.70;;;;;;;;;;4953939;29;20414;-47
2021/08/01 11:05:51;;;;;;;2.70;2.50;;;;;;;;;;4954062;29;20406;-47
2021/08/01 11:08:18;;;;;;;2.90;2.53;;;;;;;;;;4953588;29;20495;-47
2021/08/01 11:10:44;;;;;;;2.60;2.23;;;;;;;;;;4953629;28;20417;-47
2021/08/01 11:13:28;;;;;;;6.70;2.80;;;;;;;;;;4953478;29;20409;-48
2021/08/01 11:15:54;;;;;;;2.40;2.20;;;;;;;;;;4953823;29;20469;-48
2021/08/01 11:18:31;;;;;;;3.40;2.53;;;;;;;;;;4957685;28;20901;-48
2021/08/01 11:21:03;;;;;;;3.60;3.30;;;;;;;;;;4992171;28;20439;-47
2021/08/01 11:23:52;;;;;;;5.63;2.63;;;;;;;;;;4991938;28;20401;-47
2021/08/01 11:26:19;;;;;;;6.10;2.63;;;;;;;;;;4974483;28;20913;-47
2021/08/01 11:28:47;;;;;;;3.30;2.70;;;;;;;;;;4991202;28;20836;-47
2021/08/01 11:31:23;;;;;;;4.10;2.53;;;;;;;;;;4990255;28;20411;-48
2021/08/01 11:33:54;;;;;;;5.87;2.80;;;;;;;;;;4991829;28;20395;-49
2021/08/01 11:36:23;;;;;;;3.47;3.00;;;;;;;;;;4991977;28;20903;-47
2021/08/01 11:38:51;;;;;;;2.70;2.50;;;;;;;;;;4991906;28;20423;-47
2021/08/01 11:41:30;;;;;;;3.83;3.20;;;;;;;;;;4991452;28;20396;-49
2021/08/01 11:43:59;;;;;;;3.07;2.73;;;;;;;;;;4991774;28;20546;-47
2021/08/01 11:46:26;;;;;;;3.33;3.03;;;;;;;;;;4991607;28;20408;-47
2021/08/01 11:49:01;;;;;;;5.47;2.90;;;;;;;;;;4991538;28;20874;-47
2021/08/01 11:51:31;;;;;;;2.50;2.33;;;;;;;;;;4991681;28;20404;-47
2021/08/01 11:53:57;;;;;;;2.57;2.37;;;;;;;;;;4991599;28;20451;-47
2021/08/01 11:56:24;;;;;;;3.30;2.23;;;;;;;;;;4991546;28;20403;-47
2021/08/01 11:58:54;;;;;;;2.93;2.20;;;;;;;;;;4991539;28;20533;-47
2021/08/01 12:01:23;;;;;;;2.90;2.67;;;;;;;;;;4991283;28;20395;-47
2021/08/01 12:03:50;;;;;;;5.03;2.37;;;;;;;;;;4991474;28;20463;-48
2021/08/01 12:06:32;;;;;;;2.43;2.20;;;;;;;;;;4991307;28;20551;-47
2021/08/01 12:08:58;;;;;;;3.93;2.40;;;;;;;;;;4991807;28;20517;-48
2021/08/01 12:11:23;;;;;;;4.03;2.20;;;;;;;;;;4991198;28;20463;-47
2021/08/01 12:14:05;;;;;;;3.57;2.63;;;;;;;;;;4991256;28;20400;-48
2021/08/01 12:16:31;;;;;;;2.47;2.27;;;;;;;;;;4991342;28;20459;-49
2021/08/01 12:19:18;;;;;;;3.70;2.97;;;;;;;;;;4991329;28;20789;-47
2021/08/01 12:21:44;;;;;;;12.00;5.53;;;;;;;;;;4991188;28;20450;-51
2021/08/01 12:24:29;;;;;;;3.63;2.63;;;;;;;;;;4991420;28;20769;-47
2021/08/01 12:27:03;;;;;;;2.83;2.60;;;;;;;;;;4991447;28;20406;-47
2021/08/01 12:29:34;;;;;;;4.60;2.70;;;;;;;;;;4991364;28;20550;-47
2021/08/01 12:32:01;;;;;;;3.30;2.50;;;;;;;;;;4991985;28;20407;-48
2021/08/01 12:34:27;;;;;;;2.63;2.30;;;;;;;;;;4991565;28;20404;-48
2021/08/01 12:36:53;;;;;;;2.93;2.60;;;;;;;;;;4994223;28;20974;-48
2021/08/01 12:39:21;;;;;;;5.20;2.90;;;;;;;;;;4995333;28;20478;-48
2021/08/01 12:41:51;;;;;;;3.30;3.03;;;;;;;;;;4995034;28;20404;-48
2021/08/01 12:44:20;;;;;;;3.10;2.87;;;;;;;;;;4995255;28;20776;-48
2021/08/01 12:46:47;;;;;;;3.63;2.77;;;;;;;;;;4995204;28;20503;-48
2021/08/01 12:49:13;;;;;;;2.87;2.57;;;;;;;;;;4994742;28;20476;-48
2021/08/01 12:51:44;;;;;;;4.20;2.50;;;;;;;;;;4994925;28;20412;-48
2021/08/01 12:54:10;;;;;;;3.00;2.80;;;;;;;;;;4995104;28;20408;-49
2021/08/01 12:56:37;;;;;;;3.00;2.80;;;;;;;;;;4994926;28;20408;-48
2021/08/01 12:59:10;;;;;;;3.37;3.03;;;;;;;;;;4994797;28;20806;-48
2021/08/01 13:01:38;;;;;;;2.90;2.67;;;;;;;;;;4994523;28;20408;-48
2021/08/01 13:04:06;;;;;;;2.90;2.60;;;;;;;;;;4994299;28;20420;-48
2021/08/01 13:06:32;;;;;;;5.27;2.80;;;;;;;;;;4994897;28;20412;-48
2021/08/01 13:09:03;;;;;;;3.00;2.70;;;;;;;;;;4994564;28;20459;-48
2021/08/01 13:11:30;;;;;;;2.87;2.40;;;;;;;;;;4994578;28;20772;-49
2021/08/01 13:14:04;;;;;;;4.40;2.53;;;;;;;;;;4994448;28;20392;-49
2021/08/01 13:16:49;;;;;;;3.70;3.17;;;;;;;;;;4994507;28;20403;-48
2021/08/01 13:19:15;;;;;;;4.47;4.10;;;;;;;;;;4994271;28;20880;-48
2021/08/01 13:21:41;;;;;;;3.70;3.50;;;;;;;;;;4994407;28;20922;-48
2021/08/01 13:24:12;;;;;;;3.43;2.90;;;;;;;;;;4994502;28;20407;-48
2021/08/01 13:26:39;;;;;;;4.13;3.10;;;;;;;;;;4994919;28;20462;-48
2021/08/01 13:29:07;;;;;;;4.63;3.03;;;;;;;;;;4977466;28;20467;-49
2021/08/01 13:31:41;;;;;;;3.83;2.93;;;;;;;;;;4976122;28;20461;-49
2021/08/01 13:34:13;;;;;;;6.37;3.10;;;;;;;;;;4993929;28;20504;-49
2021/08/01 13:36:43;;;;;;;2.77;2.57;;;;;;;;;;4977573;28;20397;-49
2021/08/01 13:39:10;;;;;;;4.37;3.07;;;;;;;;;;4994170;28;20447;-48
2021/08/01 13:41:38;;;;;;;4.63;2.60;;;;;;;;;;4994634;28;20479;-49
2021/08/01 13:44:13;;;;;;;3.30;3.00;;;;;;;;;;4976283;28;20772;-48
2021/08/01 13:46:39;;;;;;;3.53;2.73;;;;;;;;;;4993578;28;20931;-48
2021/08/01 13:49:05;;;;;;;4.73;2.83;;;;;;;;;;4992905;28;21025;-48
2021/08/01 13:51:32;;;;;;;3.73;2.80;;;;;;;;;;4994227;28;20404;-49
2021/08/01 13:54:00;;;;;;;4.40;2.80;;;;;;;;;;4977202;28;20397;-49
2021/08/01 13:56:27;;;;;;;3.13;2.93;;;;;;;;;;4976652;28;20423;-48
2021/08/01 13:58:57;;;;;;;2.97;2.63;;;;;;;;;;4994008;28;20475;-49
2021/08/01 14:01:24;;;;;;;3.70;2.90;;;;;;;;;;4976787;28;20420;-49
2021/08/01 14:03:50;;;;;;;3.30;2.60;;;;;;;;;;4994158;28;20900;-48
2021/08/01 14:06:17;;;;;;;5.07;2.83;;;;;;;;;;4994069;28;20443;-49
2021/08/01 14:08:43;;;;;;;4.23;3.20;;;;;;;;;;4993860;28;20460;-48
2021/08/01 14:11:10;;;;;;;3.53;3.33;;;;;;;;;;4976766;28;20495;-49
2021/08/01 14:13:36;;;;;;;3.40;3.10;;;;;;;;;;4975929;28;20507;-49
2021/08/01 14:16:03;;;;;;;2.83;2.63;;;;;;;;;;4976794;28;20427;-48
2021/08/01 14:18:29;;;;;;;3.87;3.37;;;;;;;;;;4992405;28;20404;-48
2021/08/01 14:20:55;;;;;;;3.23;3.00;;;;;;;;;;4992411;28;20765;-48
2021/08/01 14:23:21;;;;;;;3.23;2.97;;;;;;;;;;4993936;28;20407;-47
2021/08/01 14:25:47;;;;;;;2.60;2.50;;;;;;;;;;4992131;28;20451;-47
2021/08/01 14:28:13;;;;;;;3.67;3.30;;;;;;;;;;4992192;28;20882;-48
2021/08/01 14:30:39;;;;;;;4.17;3.87;;;;;;;;;;4993312;28;20511;-48